Time;durP1;ratioP1;P1;durP2;ratioP2;P2;SDS_P1;SDS_P2;PMS_P1;PMS_P2;Temp;Humidity;BMP_temperature;BMP_pressure;BME280_temperature;BME280_humidity;BME280_pressure;Samples;Min_cycle;Max_cycle;Signal;HPM_P1;HPM_P2
2024/03/16 00:01:58;;;;;;;3.10;2.80;;;;;;;19.78;53.57;97276.28;5015003;28;20218;-26
2024/03/16 00:04:25;;;;;;;3.13;2.83;;;;;;;19.79;53.31;97272.91;5013956;28;20233;-28
2024/03/16 00:06:52;;;;;;;3.23;2.93;;;;;;;19.78;53.60;97278.84;5013890;28;20559;-28
2024/03/16 00:09:20;;;;;;;2.90;2.70;;;;;;;19.77;53.55;97283.06;5020428;28;20206;-27
2024/03/16 00:11:47;;;;;;;3.10;2.90;;;;;;;19.79;53.46;97278.00;5018749;28;20587;-27
2024/03/16 00:14:13;;;;;;;2.87;2.60;;;;;;;19.79;53.52;97276.34;5021471;28;20230;-28
2024/03/16 00:16:40;;;;;;;3.40;2.90;;;;;;;19.81;53.53;97277.25;5015980;28;20210;-27
2024/03/16 00:19:07;;;;;;;3.53;3.13;;;;;;;19.82;53.39;97281.53;5020493;28;20672;-27
2024/03/16 00:21:34;;;;;;;3.00;2.70;;;;;;;19.81;53.47;97274.69;5028414;28;20312;-27
2024/03/16 00:24:01;;;;;;;3.30;2.97;;;;;;;19.81;53.02;97272.13;5017819;28;20226;-35
2024/03/16 00:26:27;;;;;;;3.00;2.77;;;;;;;19.82;53.51;97278.13;5016484;28;20205;-28
2024/03/16 00:28:54;;;;;;;3.70;2.80;;;;;;;19.80;53.47;97282.28;5020252;28;20259;-29
2024/03/16 00:31:20;;;;;;;3.03;2.83;;;;;;;19.79;53.38;97290.75;5019552;28;20341;-28
2024/03/16 00:33:47;;;;;;;3.43;3.13;;;;;;;19.78;53.59;97292.44;5021418;28;20244;-27
2024/03/16 00:36:15;;;;;;;3.10;2.90;;;;;;;19.78;53.58;97294.13;5018021;28;20197;-28
2024/03/16 00:38:42;;;;;;;3.13;2.83;;;;;;;19.77;53.52;97305.13;5022330;28;20206;-30
2024/03/16 00:41:08;;;;;;;3.23;2.93;;;;;;;19.76;53.54;97295.75;5016249;28;20558;-28
2024/03/16 00:43:35;;;;;;;3.27;2.87;;;;;;;19.76;53.29;97295.75;5020575;28;20245;-27
2024/03/16 00:46:03;;;;;;;2.90;2.70;;;;;;;19.75;53.72;97305.09;5019280;28;20205;-27
2024/03/16 00:48:29;;;;;;;3.03;2.83;;;;;;;19.75;53.43;97305.09;5014209;28;20221;-26
2024/03/16 00:50:56;;;;;;;3.10;2.80;;;;;;;19.75;53.47;97306.78;5022216;28;20284;-26
2024/03/16 00:53:23;;;;;;;2.90;2.60;;;;;;;19.75;53.57;97309.34;5020523;28;20230;-26
2024/03/16 00:55:49;;;;;;;3.37;3.07;;;;;;;19.74;53.57;97311.00;5030768;28;20208;-28
2024/03/16 00:58:16;;;;;;;3.37;3.00;;;;;;;19.75;53.49;97315.28;5013726;28;20213;-28
2024/03/16 01:00:42;;;;;;;3.00;2.70;;;;;;;19.75;53.52;97310.19;5020999;28;20206;-30
2024/03/16 01:03:09;;;;;;;2.73;2.53;;;;;;;19.76;53.11;97319.59;5018805;28;20288;-32
2024/03/16 01:05:36;;;;;;;2.97;2.77;;;;;;;19.78;53.37;97324.75;5018993;28;20202;-26
2024/03/16 01:08:03;;;;;;;2.77;2.57;;;;;;;19.80;53.40;97330.72;5024691;28;20705;-27
2024/03/16 01:10:29;;;;;;;3.00;2.70;;;;;;;19.79;53.50;97327.34;5018286;28;20233;-26
2024/03/16 01:12:56;;;;;;;2.93;2.63;;;;;;;19.80;53.34;97325.63;5021250;28;20198;-28
2024/03/16 01:15:22;;;;;;;3.40;3.10;;;;;;;19.79;53.49;97326.47;5023040;28;20210;-27
2024/03/16 01:17:49;;;;;;;3.20;2.37;;;;;;;19.78;53.30;97334.94;5031548;28;20209;-26
2024/03/16 01:20:16;;;;;;;2.90;2.70;;;;;;;19.78;53.44;97340.03;5012890;28;20214;-26
2024/03/16 01:22:42;;;;;;;2.93;2.70;;;;;;;19.77;53.40;97338.28;5021211;28;20746;-26
2024/03/16 01:25:09;;;;;;;3.07;2.83;;;;;;;19.76;53.49;97347.63;5024648;28;20202;-27
2024/03/16 01:27:36;;;;;;;2.60;2.40;;;;;;;19.77;53.35;97339.16;5017550;28;20202;-25
2024/03/16 01:30:03;;;;;;;2.70;2.50;;;;;;;19.76;53.34;97336.56;5017087;28;20268;-30
2024/03/16 01:32:30;;;;;;;2.97;2.60;;;;;;;19.75;53.36;97337.38;5022590;28;20198;-26
2024/03/16 01:34:56;;;;;;;2.77;2.57;;;;;;;19.74;53.52;97331.41;5024304;28;20244;-29
2024/03/16 01:37:23;;;;;;;2.77;2.57;;;;;;;19.74;53.49;97343.28;5018190;28;20212;-27
2024/03/16 01:39:50;;;;;;;2.67;2.47;;;;;;;19.73;53.29;97346.66;5023279;28;20271;-26
2024/03/16 01:42:16;;;;;;;2.80;2.60;;;;;;;19.74;53.57;97350.94;5026516;28;20857;-26
2024/03/16 01:45:02;;;;;;;3.00;2.70;;;;;;;19.74;53.43;97359.47;5016483;28;20304;-28
2024/03/16 01:47:31;;;;;;;2.80;2.60;;;;;;;19.75;53.43;97365.44;5010395;28;20293;-26
2024/03/16 01:49:59;;;;;;;2.77;2.50;;;;;;;19.76;53.39;97352.75;5021439;28;20221;-26
2024/03/16 01:52:28;;;;;;;2.80;2.60;;;;;;;19.77;53.41;97351.91;5022770;28;20217;-27
2024/03/16 01:54:55;;;;;;;2.70;2.50;;;;;;;19.79;53.12;97360.50;5016638;28;20964;-28
2024/03/16 01:57:22;;;;;;;2.50;2.30;;;;;;;19.79;53.38;97360.50;5029236;28;20272;-26
2024/03/16 01:59:51;;;;;;;2.87;2.67;;;;;;;19.79;53.18;97359.59;5020919;28;20280;-28
2024/03/16 02:02:33;;;;;;;2.80;2.50;;;;;;;19.78;53.29;97361.28;5017316;28;20706;-29
2024/03/16 02:05:00;;;;;;;2.60;2.40;;;;;;;19.77;53.44;97356.13;5015944;28;20221;-29
2024/03/16 02:07:27;;;;;;;2.70;2.50;;;;;;;19.76;52.98;97362.94;5016468;28;20289;-26
2024/03/16 02:09:53;;;;;;;2.70;2.50;;;;;;;19.76;53.34;97359.50;5016917;28;20251;-28
2024/03/16 02:12:20;;;;;;;2.10;2.00;;;;;;;19.75;53.47;97356.09;5021303;28;20194;-35
2024/03/16 02:14:46;;;;;;;2.50;2.30;;;;;;;19.74;53.30;97354.34;5019471;28;20268;-27
2024/03/16 02:17:13;;;;;;;2.60;2.40;;;;;;;19.74;52.91;97359.47;5015789;28;20692;-28
2024/03/16 02:19:40;;;;;;;2.50;2.30;;;;;;;19.75;53.43;97368.84;5016466;28;20248;-27
2024/03/16 02:22:06;;;;;;;2.63;2.40;;;;;;;19.73;53.38;97357.72;5022220;28;20317;-29
2024/03/16 02:24:33;;;;;;;2.70;2.50;;;;;;;19.75;53.41;97362.88;5017250;28;20229;-28
2024/03/16 02:26:59;;;;;;;2.70;2.50;;;;;;;19.74;53.44;97364.56;5002664;28;20201;-26
2024/03/16 02:29:32;;;;;;;2.40;2.20;;;;;;;19.75;53.33;97362.88;5021483;28;20210;-27
2024/03/16 02:31:59;;;;;;;2.73;2.40;;;;;;;19.77;53.11;97363.78;5022012;28;20244;-29
2024/03/16 02:34:26;;;;;;;2.27;2.13;;;;;;;19.75;53.24;97363.72;5020136;28;20257;-27
2024/03/16 02:36:52;;;;;;;2.70;2.43;;;;;;;19.78;53.38;97361.28;5018281;28;20194;-27
2024/03/16 02:39:22;;;;;;;2.60;2.40;;;;;;;19.79;53.30;97364.72;5016813;28;20198;-28
2024/03/16 02:41:48;;;;;;;2.43;2.23;;;;;;;19.78;53.83;97365.53;5022745;28;20271;-26
2024/03/16 02:44:15;;;;;;;2.80;2.60;;;;;;;19.78;53.45;97370.63;5017646;28;20538;-34
2024/03/16 02:46:41;;;;;;;2.37;2.17;;;;;;;19.77;53.35;97377.41;5000183;28;20198;-27
2024/03/16 02:49:08;;;;;;;2.90;2.60;;;;;;;19.77;53.23;97379.09;5021259;28;20496;-27
2024/03/16 02:51:35;;;;;;;2.50;2.30;;;;;;;19.76;53.76;97380.78;5023419;28;20585;-26
2024/03/16 02:54:01;;;;;;;2.13;2.00;;;;;;;19.76;53.38;97378.22;5025022;28;20395;-26
2024/03/16 02:56:28;;;;;;;2.23;2.07;;;;;;;19.75;53.39;97371.38;5022659;28;20202;-34
2024/03/16 02:58:54;;;;;;;2.20;2.10;;;;;;;19.75;53.41;97373.09;5019701;28;20194;-27
2024/03/16 03:01:21;;;;;;;2.60;2.40;;;;;;;19.74;53.47;97369.66;5019042;28;20234;-27
2024/03/16 03:03:48;;;;;;;2.40;2.20;;;;;;;19.75;53.34;97373.09;5016541;28;20233;-29
2024/03/16 03:06:14;;;;;;;2.50;2.30;;;;;;;19.74;53.22;97367.09;5019023;28;20202;-29
2024/03/16 03:08:43;;;;;;;2.17;2.07;;;;;;;19.74;53.47;97374.75;5018787;28;20320;-27
2024/03/16 03:11:10;;;;;;;2.40;2.20;;;;;;;19.73;53.53;97375.59;5008428;28;20199;-27
2024/03/16 03:13:37;;;;;;;2.20;2.00;;;;;;;19.75;53.07;97373.09;5014940;28;20235;-29
2024/03/16 03:16:04;;;;;;;2.53;2.33;;;;;;;19.75;53.34;97373.94;5021559;28;20202;-26
2024/03/16 03:18:30;;;;;;;2.53;2.30;;;;;;;19.76;53.43;97372.25;5017475;28;20202;-29
2024/03/16 03:20:57;;;;;;;2.40;2.20;;;;;;;19.77;53.43;97373.97;5026479;28;20200;-26
2024/03/16 03:23:24;;;;;;;2.23;2.00;;;;;;;19.78;53.25;97380.84;5023404;28;20241;-27
2024/03/16 03:25:50;;;;;;;2.47;2.27;;;;;;;19.77;53.18;97373.97;5021173;28;20194;-30
2024/03/16 03:28:17;;;;;;;2.20;2.10;;;;;;;19.77;53.40;97377.41;5020035;28;20197;-29
2024/03/16 03:30:44;;;;;;;2.20;2.00;;;;;;;19.76;53.20;97373.13;5026775;28;20205;-27
2024/03/16 03:33:10;;;;;;;2.20;2.10;;;;;;;19.76;53.42;97377.34;5015625;28;20229;-27
2024/03/16 03:35:37;;;;;;;2.50;2.30;;;;;;;19.76;53.52;97374.81;5021405;28;20391;-28
2024/03/16 03:38:04;;;;;;;2.20;2.00;;;;;;;19.76;53.45;97385.00;4999058;28;20260;-30
2024/03/16 03:40:30;;;;;;;2.40;2.20;;;;;;;19.75;53.33;97376.47;5021631;28;20201;-26
2024/03/16 03:43:00;;;;;;;2.20;2.10;;;;;;;19.75;53.33;97380.72;5015825;28;20230;-26
2024/03/16 03:48:36;;;;;;;2.40;2.20;;;;;;;19.73;53.40;97388.34;4997000;28;20202;-29
2024/03/16 03:51:03;;;;;;;2.00;1.90;;;;;;;19.74;53.49;97394.28;5020481;28;20620;-27
2024/03/16 03:53:30;;;;;;;2.20;2.00;;;;;;;19.73;53.45;97388.34;5026499;28;20210;-29
2024/03/16 03:55:57;;;;;;;2.00;1.90;;;;;;;19.73;53.44;97388.34;5023718;28;20198;-26
2024/03/16 03:58:24;;;;;;;2.10;2.00;;;;;;;19.74;53.31;97389.19;5022273;28;20198;-28
2024/03/16 04:00:50;;;;;;;2.30;2.10;;;;;;;19.75;53.42;97385.84;5011553;28;20195;-28
2024/03/16 04:03:17;;;;;;;1.77;1.67;;;;;;;19.76;53.36;97390.09;5021197;28;20630;-25
2024/03/16 04:05:44;;;;;;;2.20;2.10;;;;;;;19.77;53.47;97399.47;5021545;28;20657;-26
2024/03/16 04:08:10;;;;;;;2.10;1.90;;;;;;;19.77;53.34;97386.72;5012205;28;20719;-29
2024/03/16 04:10:37;;;;;;;2.03;1.90;;;;;;;19.77;53.06;97385.06;5015039;28;20329;-28
2024/03/16 04:13:04;;;;;;;1.90;1.80;;;;;;;19.76;53.21;97390.97;5021084;28;20217;-28
2024/03/16 04:15:31;;;;;;;2.20;2.00;;;;;;;19.77;53.30;97385.06;5009827;28;20202;-27
2024/03/16 04:17:57;;;;;;;2.03;1.90;;;;;;;19.75;53.00;97384.13;5020195;28;20208;-27
2024/03/16 04:20:24;;;;;;;1.90;1.80;;;;;;;19.75;53.26;97383.28;5020338;28;20202;-26
2024/03/16 04:22:51;;;;;;;2.10;2.00;;;;;;;19.73;53.33;97383.22;5011621;28;20223;-26
2024/03/16 04:25:18;;;;;;;2.23;2.00;;;;;;;19.74;53.26;97381.53;5017647;28;20214;-29
2024/03/16 04:27:45;;;;;;;2.20;2.10;;;;;;;19.73;53.46;97390.88;5016261;28;20248;-26
2024/03/16 04:30:11;;;;;;;1.90;1.80;;;;;;;19.73;53.37;97387.44;5028321;28;20217;-30
2024/03/16 04:32:38;;;;;;;2.00;1.90;;;;;;;19.72;53.36;97389.13;5020290;28;20220;-28
2024/03/16 04:35:05;;;;;;;2.13;2.00;;;;;;;19.73;53.46;97401.06;5019716;28;20206;-36
2024/03/16 04:37:33;;;;;;;1.97;1.87;;;;;;;19.73;53.29;97403.63;5013218;28;20195;-27
2024/03/16 04:40:00;;;;;;;2.00;1.90;;;;;;;19.73;53.29;97398.53;5017835;28;20209;-29
2024/03/16 04:42:27;;;;;;;2.00;1.80;;;;;;;19.74;53.30;97395.16;5015432;28;20222;-28
2024/03/16 04:44:53;;;;;;;1.90;1.80;;;;;;;19.75;53.43;97386.69;5016214;28;20221;-27
2024/03/16 04:47:20;;;;;;;1.90;1.80;;;;;;;19.76;53.35;97382.47;5017036;28;20226;-28
2024/03/16 04:49:46;;;;;;;2.00;1.90;;;;;;;19.77;53.73;97391.84;5008267;28;20203;-29
2024/03/16 04:52:15;;;;;;;1.97;1.87;;;;;;;19.77;53.15;97386.72;5013470;28;20237;-30
2024/03/16 04:54:42;;;;;;;1.90;1.80;;;;;;;19.77;53.13;97389.28;5028676;28;20218;-28
2024/03/16 04:57:08;;;;;;;2.07;1.97;;;;;;;19.76;53.25;97382.47;5004875;28;20618;-36
2024/03/16 04:59:35;;;;;;;2.07;1.87;;;;;;;19.75;53.21;97394.31;5022562;28;20230;-28
2024/03/16 05:02:02;;;;;;;2.13;1.77;;;;;;;19.75;53.21;97396.03;5013005;28;20241;-29
2024/03/16 05:04:28;;;;;;;1.90;1.80;;;;;;;19.75;53.46;97398.59;5023340;28;20217;-28
2024/03/16 05:06:55;;;;;;;1.93;1.83;;;;;;;19.74;53.27;97396.81;5014854;28;20232;-30
2024/03/16 05:09:22;;;;;;;1.90;1.80;;;;;;;19.74;53.34;97400.25;5016290;28;20202;-26
2024/03/16 05:11:48;;;;;;;1.90;1.80;;;;;;;19.74;53.30;97405.34;5016412;28;20614;-31
2024/03/16 05:14:15;;;;;;;1.70;1.60;;;;;;;19.74;53.45;97409.56;5016012;28;20210;-31
2024/03/16 05:16:42;;;;;;;1.93;1.83;;;;;;;19.74;53.20;97409.56;5015576;28;20308;-27
2024/03/16 05:19:08;;;;;;;1.87;1.77;;;;;;;19.72;52.98;97417.16;5017896;28;20268;-27
2024/03/16 05:21:35;;;;;;;1.97;1.87;;;;;;;19.72;53.37;97423.97;5000909;28;20206;-27
2024/03/16 05:24:01;;;;;;;1.97;1.87;;;;;;;19.73;53.29;97418.06;5020322;28;20233;-29
2024/03/16 05:26:30;;;;;;;2.10;2.00;;;;;;;19.74;53.31;97420.66;5014596;28;20198;-27
2024/03/16 05:28:57;;;;;;;1.80;1.70;;;;;;;19.76;53.10;97423.25;5016812;28;20195;-27
2024/03/16 05:31:24;;;;;;;1.70;1.60;;;;;;;19.77;53.10;97422.44;5015962;28;20216;-34
2024/03/16 05:33:51;;;;;;;2.03;1.90;;;;;;;19.77;53.15;97430.06;5013658;28;20310;-28
2024/03/16 05:36:17;;;;;;;1.80;1.70;;;;;;;19.78;53.03;97427.59;5014841;28;20199;-27
2024/03/16 05:38:45;;;;;;;1.90;1.80;;;;;;;19.74;53.19;97419.78;5016365;28;20206;-25
2024/03/16 05:41:12;;;;;;;1.80;1.70;;;;;;;19.79;52.97;97433.56;5017392;28;20202;-26
2024/03/16 05:43:41;;;;;;;1.70;1.60;;;;;;;19.81;53.19;97443.00;5016006;28;20301;-27
2024/03/16 05:46:08;;;;;;;2.33;2.13;;;;;;;19.81;53.21;97444.69;5008531;28;20265;-27
2024/03/16 05:48:34;;;;;;;1.70;1.60;;;;;;;19.80;53.21;97441.25;5015838;28;20285;-27
2024/03/16 05:51:02;;;;;;;1.63;1.53;;;;;;;19.82;53.13;97448.97;5013644;28;20217;-34
2024/03/16 05:53:29;;;;;;;1.80;1.70;;;;;;;19.82;53.20;97448.97;5024840;28;20222;-27
2024/03/16 05:55:56;;;;;;;1.93;1.83;;;;;;;19.82;52.88;97447.28;5024884;28;20574;-28
2024/03/16 05:58:22;;;;;;;1.90;1.80;;;;;;;19.81;53.06;97452.34;5015304;28;20206;-29
2024/03/16 06:00:49;;;;;;;1.80;1.70;;;;;;;19.80;53.35;97453.13;5016316;28;20330;-29
2024/03/16 06:03:16;;;;;;;1.93;1.77;;;;;;;19.78;53.06;97447.97;5024634;28;20232;-27
2024/03/16 06:05:45;;;;;;;1.60;1.50;;;;;;;19.77;53.37;97453.91;5026766;28;20199;-27
2024/03/16 06:08:13;;;;;;;1.70;1.60;;;;;;;19.76;53.39;97449.63;5018203;28;20198;-27
2024/03/16 06:10:41;;;;;;;1.70;1.60;;;;;;;19.75;53.17;97442.78;5024784;28;20198;-36
2024/03/16 06:13:10;;;;;;;1.50;1.40;;;;;;;19.75;53.27;97444.47;5018402;28;20229;-31
2024/03/16 06:15:39;;;;;;;1.70;1.60;;;;;;;19.75;53.35;97441.94;5012765;28;20213;-26
2024/03/16 06:18:06;;;;;;;1.87;1.77;;;;;;;19.73;53.28;97454.63;5019743;28;20198;-37
2024/03/16 06:20:32;;;;;;;1.80;1.70;;;;;;;19.74;53.37;97452.91;5015916;28;20206;-26
2024/03/16 06:22:59;;;;;;;1.80;1.70;;;;;;;19.73;53.44;97451.19;5014063;28;20233;-29
2024/03/16 06:25:29;;;;;;;1.70;1.60;;;;;;;19.74;53.18;97455.47;5022609;28;20676;-33
2024/03/16 06:28:05;;;;;;;1.80;1.70;;;;;;;19.73;53.68;97456.28;5016417;28;20202;-27
2024/03/16 06:30:32;;;;;;;1.80;1.70;;;;;;;19.68;53.61;97461.22;5012392;28;20634;-25
2024/03/16 06:33:11;;;;;;;1.70;1.60;;;;;;;19.73;53.49;97469.03;5024405;28;20257;-28
2024/03/16 06:35:41;;;;;;;1.70;1.60;;;;;;;19.72;53.24;97468.16;5014125;28;20210;-26
2024/03/16 06:38:08;;;;;;;1.80;1.70;;;;;;;19.73;53.24;97481.78;5014829;28;20647;-26
2024/03/16 06:40:35;;;;;;;1.87;1.77;;;;;;;19.72;53.41;97478.38;5009163;28;20223;-29
2024/03/16 06:43:02;;;;;;;1.83;1.70;;;;;;;19.72;53.37;97480.06;5019814;28;20260;-29
2024/03/16 06:45:28;;;;;;;1.60;1.50;;;;;;;19.71;53.47;97475.75;5016014;28;20680;-28
2024/03/16 06:47:55;;;;;;;1.70;1.60;;;;;;;19.72;53.69;97482.63;5010430;28;20204;-29
2024/03/16 06:50:22;;;;;;;1.83;1.70;;;;;;;19.72;53.36;97487.72;5012245;28;20213;-30
2024/03/16 06:52:48;;;;;;;1.50;1.40;;;;;;;19.72;53.23;97490.25;5009721;28;20672;-27
2024/03/16 06:55:17;;;;;;;1.53;1.43;;;;;;;19.69;53.42;97492.72;5016804;28;20227;-26
2024/03/16 06:57:44;;;;;;;1.80;1.70;;;;;;;19.72;53.47;97497.91;5016006;28;20199;-26
2024/03/16 07:00:12;;;;;;;1.70;1.60;;;;;;;19.72;53.38;97500.47;5018238;28;20205;-28
2024/03/16 07:02:38;;;;;;;1.70;1.60;;;;;;;19.70;53.39;97505.50;5008193;28;20209;-26
2024/03/16 07:05:07;;;;;;;1.57;1.47;;;;;;;19.70;53.39;97505.50;5017763;28;20198;-29
2024/03/16 07:07:34;;;;;;;1.73;1.63;;;;;;;19.71;53.56;97506.34;5005554;28;20202;-36
2024/03/16 07:10:01;;;;;;;1.50;1.40;;;;;;;19.70;53.50;97507.19;5009361;28;20244;-27
2024/03/16 07:12:27;;;;;;;1.70;1.60;;;;;;;19.70;53.53;97507.19;5018736;28;20573;-26
2024/03/16 07:14:54;;;;;;;1.60;1.50;;;;;;;19.71;53.32;97514.00;4996874;28;20245;-26
2024/03/16 07:17:25;;;;;;;1.60;1.50;;;;;;;19.70;53.59;97518.25;5017195;28;20256;-31
2024/03/16 07:19:55;;;;;;;1.70;1.60;;;;;;;19.71;53.46;97524.19;5014581;28;20210;-29
2024/03/16 07:22:22;;;;;;;1.47;1.37;;;;;;;19.70;53.39;97527.56;5013759;28;20206;-28
2024/03/16 07:24:49;;;;;;;1.60;1.50;;;;;;;19.70;53.36;97532.69;5020533;28;20230;-30
2024/03/16 07:27:16;;;;;;;1.57;1.47;;;;;;;19.71;53.29;97529.31;5016760;28;20636;-27
2024/03/16 07:29:44;;;;;;;1.70;1.60;;;;;;;19.70;53.39;97541.22;5011535;28;20249;-31
2024/03/16 07:32:11;;;;;;;1.70;1.60;;;;;;;19.69;53.48;97541.16;5012203;28;20590;-28
2024/03/16 07:34:37;;;;;;;1.47;1.37;;;;;;;19.71;53.46;97537.84;5017404;28;20732;-28
2024/03/16 07:37:04;;;;;;;1.60;1.50;;;;;;;19.71;53.43;97539.50;5018492;28;20202;-27
2024/03/16 07:39:31;;;;;;;1.40;1.30;;;;;;;19.71;53.33;97550.59;5020726;28;20680;-26
2024/03/16 07:41:57;;;;;;;1.60;1.50;;;;;;;19.71;53.26;97555.69;5015707;28;20198;-28
2024/03/16 07:44:24;;;;;;;1.87;1.77;;;;;;;19.71;53.55;97552.25;5030232;28;20225;-28
2024/03/16 07:46:50;;;;;;;1.60;1.50;;;;;;;19.71;53.11;97563.31;5017137;28;20199;-27
2024/03/16 07:49:17;;;;;;;4.47;1.70;;;;;;;19.72;53.29;97561.66;5018006;28;20286;-26
2024/03/16 07:51:44;;;;;;;2.53;2.07;;;;;;;19.71;53.34;97559.91;5005296;28;20301;-30
2024/03/16 07:54:12;;;;;;;2.77;2.13;;;;;;;19.71;53.39;97570.09;5008100;28;20222;-29
2024/03/16 07:56:39;;;;;;;3.83;2.07;;;;;;;19.71;53.34;97573.53;5009186;28;20281;-26
2024/03/16 07:59:09;;;;;;;2.93;2.40;;;;;;;19.70;53.23;97576.91;5007789;28;20673;-29
2024/03/16 08:01:36;;;;;;;6.10;2.40;;;;;;;19.70;53.31;97579.44;5010359;28;20198;-28
2024/03/16 08:04:03;;;;;;;2.87;2.27;;;;;;;19.72;53.54;97576.97;5012750;28;20613;-30
2024/03/16 08:06:30;;;;;;;2.77;2.20;;;;;;;19.70;53.57;97573.47;5007728;28;20302;-28
2024/03/16 08:08:56;;;;;;;2.97;2.13;;;;;;;19.69;53.35;97579.41;5012630;28;20559;-28
2024/03/16 08:11:23;;;;;;;3.73;2.17;;;;;;;19.69;53.26;97574.28;5015530;28;20247;-29
2024/03/16 08:13:50;;;;;;;2.63;2.20;;;;;;;19.70;53.47;97587.09;5010756;28;20651;-27
2024/03/16 08:16:16;;;;;;;3.47;1.90;;;;;;;19.69;53.40;97580.25;5011559;28;20198;-25
2024/03/16 08:18:44;;;;;;;4.53;2.50;;;;;;;19.69;53.29;97582.78;5006047;28;20203;-29
2024/03/16 08:21:14;;;;;;;2.63;2.17;;;;;;;19.69;53.29;97581.94;5012526;28;20209;-27
2024/03/16 08:23:41;;;;;;;2.57;2.23;;;;;;;19.69;53.21;97589.59;5011746;28;20580;-28
2024/03/16 08:26:09;;;;;;;2.87;2.33;;;;;;;19.68;53.23;97591.25;5018245;28;20679;-28
2024/03/16 08:28:36;;;;;;;4.17;2.07;;;;;;;19.69;52.81;97587.03;5016968;28;20198;-28
2024/03/16 08:31:04;;;;;;;8.73;2.40;;;;;;;19.68;52.32;97587.84;5017991;28;20210;-27
2024/03/16 08:33:31;;;;;;;3.93;2.30;;;;;;;19.69;52.45;97589.59;5019413;28;20214;-30
2024/03/16 08:35:58;;;;;;;6.37;2.57;;;;;;;19.70;52.61;97592.19;5020206;28;20205;-27
2024/03/16 08:38:25;;;;;;;2.97;2.17;;;;;;;19.72;51.31;97589.72;5020890;28;20281;-27
2024/03/16 08:40:52;;;;;;;4.27;2.00;;;;;;;19.72;51.92;97582.91;5023039;28;20714;-28
2024/03/16 08:43:18;;;;;;;5.63;2.30;;;;;;;19.72;52.29;97582.06;5015680;28;20229;-29
2024/03/16 08:45:45;;;;;;;3.47;2.20;;;;;;;19.70;52.43;97587.09;5013392;28;20226;-28
2024/03/16 08:48:12;;;;;;;2.40;2.20;;;;;;;19.69;52.51;97582.78;5014407;28;20435;-34
2024/03/16 08:50:38;;;;;;;2.30;2.10;;;;;;;19.70;52.85;97587.09;5016343;28;20696;-28
2024/03/16 08:53:05;;;;;;;2.70;2.17;;;;;;;19.71;52.77;97580.28;5016392;28;20222;-28
2024/03/16 08:55:32;;;;;;;4.67;2.20;;;;;;;19.72;52.79;97582.06;5016928;28;20205;-27
2024/03/16 08:57:59;;;;;;;2.80;2.37;;;;;;;19.72;52.86;97582.06;5016106;28;20221;-26
2024/03/16 09:00:26;;;;;;;3.80;2.43;;;;;;;19.73;52.99;97581.22;5019685;28;20204;-25
2024/03/16 09:02:52;;;;;;;4.57;2.50;;;;;;;19.73;52.88;97581.22;5019123;28;20334;-34
2024/03/16 09:05:21;;;;;;;2.30;2.10;;;;;;;19.74;52.69;97586.38;5013395;28;20743;-26
2024/03/16 09:07:47;;;;;;;2.77;2.03;;;;;;;19.75;52.94;97589.81;5015795;28;20221;-26
2024/03/16 09:10:14;;;;;;;2.80;2.30;;;;;;;19.75;52.94;97588.13;5017827;28;20202;-26
2024/03/16 09:12:41;;;;;;;2.10;1.90;;;;;;;19.76;52.79;97599.19;5016343;28;20653;-29
2024/03/16 09:15:11;;;;;;;3.23;2.20;;;;;;;19.74;52.82;97596.59;5016474;28;20209;-27
2024/03/16 09:17:38;;;;;;;2.90;2.20;;;;;;;19.75;52.98;97600.88;5014473;28;20206;-27
2024/03/16 09:20:09;;;;;;;2.63;2.10;;;;;;;19.75;53.01;97597.47;5018214;28;20723;-27
2024/03/16 09:22:37;;;;;;;2.90;2.00;;;;;;;19.74;52.84;97598.25;5017563;28;20202;-29
2024/03/16 09:25:08;;;;;;;2.73;2.00;;;;;;;19.74;52.76;97600.81;5018965;28;20249;-27
2024/03/16 09:27:35;;;;;;;1.93;1.70;;;;;;;19.75;52.80;97600.88;5013621;28;20294;-29
2024/03/16 09:30:08;;;;;;;2.27;2.00;;;;;;;19.75;52.81;97605.13;5016986;28;20210;-30
2024/03/16 09:32:36;;;;;;;2.20;2.00;;;;;;;19.75;52.65;97607.66;5018295;28;20201;-29
2024/03/16 09:35:07;;;;;;;2.43;2.10;;;;;;;19.74;52.87;97611.88;5028432;28;20289;-26
2024/03/16 09:37:33;;;;;;;3.10;2.40;;;;;;;19.74;52.83;97608.47;5015071;28;20372;-27
2024/03/16 09:40:00;;;;;;;2.90;2.03;;;;;;;19.73;53.02;97611.84;5017212;28;20198;-27
2024/03/16 09:42:28;;;;;;;2.13;1.93;;;;;;;19.72;52.92;97607.56;5017969;28;20205;-27
2024/03/16 09:44:55;;;;;;;2.77;1.63;;;;;;;19.73;52.99;97614.38;5014524;28;20222;-29
2024/03/16 09:47:23;;;;;;;1.93;1.83;;;;;;;19.70;52.88;97616.81;4982769;28;20233;-26
2024/03/16 09:49:48;;;;;;;2.50;2.10;;;;;;;19.72;53.06;97613.50;4961895;28;20202;-28
2024/03/16 09:52:14;;;;;;;1.70;1.60;;;;;;;19.71;53.17;97611.78;4997038;28;20204;-26
2024/03/16 09:54:41;;;;;;;2.30;1.90;;;;;;;19.72;52.99;97615.22;4969639;28;20241;-26
2024/03/16 09:57:13;;;;;;;2.13;1.93;;;;;;;19.71;52.98;97626.19;5002744;28;20222;-25
2024/03/16 09:59:39;;;;;;;2.80;2.07;;;;;;;19.70;52.96;97625.34;4982249;28;20209;-27
2024/03/16 10:02:08;;;;;;;2.40;1.90;;;;;;;19.71;53.14;97627.06;4999589;28;20285;-28
2024/03/16 10:04:35;;;;;;;1.90;1.70;;;;;;;19.71;52.96;97621.97;4967170;28;20712;-29
2024/03/16 10:07:01;;;;;;;2.57;2.00;;;;;;;19.70;53.04;97627.91;5000079;28;20210;-27
2024/03/16 10:09:27;;;;;;;2.13;1.60;;;;;;;19.71;53.10;97633.84;4996864;28;20202;-26
2024/03/16 10:11:54;;;;;;;2.40;1.70;;;;;;;19.70;53.17;97638.09;4998496;28;20233;-28
2024/03/16 10:14:21;;;;;;;2.20;2.00;;;;;;;19.71;53.08;97638.94;4973786;28;20236;-31
2024/03/16 10:16:47;;;;;;;2.10;1.90;;;;;;;19.70;53.05;97638.09;5006789;28;20205;-26
2024/03/16 10:19:17;;;;;;;2.10;1.80;;;;;;;19.72;52.86;97640.69;4997161;28;20203;-26
2024/03/16 10:21:46;;;;;;;2.37;1.63;;;;;;;19.73;53.04;97642.44;5002260;28;20206;-27
2024/03/16 10:24:11;;;;;;;1.67;1.57;;;;;;;19.75;53.08;97634.00;4999456;28;20233;-31
2024/03/16 10:26:37;;;;;;;2.30;1.80;;;;;;;19.75;53.13;97641.66;4993189;28;20198;-36
2024/03/16 10:29:07;;;;;;;1.90;1.70;;;;;;;19.77;53.21;97641.72;4996743;28;20210;-27
2024/03/16 10:31:32;;;;;;;1.97;1.70;;;;;;;19.75;53.18;97634.00;4984321;28;20229;-27
2024/03/16 10:34:01;;;;;;;2.87;1.70;;;;;;;19.77;53.18;97639.16;5000848;28;20230;-30
2024/03/16 10:36:27;;;;;;;2.00;1.73;;;;;;;19.77;53.17;97641.72;4998153;28;20197;-33
2024/03/16 10:38:55;;;;;;;1.87;1.60;;;;;;;19.76;52.93;97627.25;4992764;28;20257;-30
2024/03/16 10:41:21;;;;;;;1.90;1.70;;;;;;;19.76;52.67;97625.56;4992479;28;20269;-28
2024/03/16 10:43:47;;;;;;;2.67;1.87;;;;;;;19.73;53.02;97637.34;5002382;28;20230;-27
2024/03/16 10:46:15;;;;;;;1.90;1.70;;;;;;;19.74;52.94;97633.97;5005372;28;20202;-33
2024/03/16 10:48:45;;;;;;;1.80;1.70;;;;;;;19.73;53.05;97630.56;4999292;28;20578;-27
2024/03/16 10:51:15;;;;;;;5.17;1.80;;;;;;;19.73;53.12;97629.69;4972841;28;20197;-26
2024/03/16 10:53:40;;;;;;;2.77;1.50;;;;;;;19.72;53.06;97618.59;4998650;28;20233;-27
2024/03/16 10:56:06;;;;;;;1.77;1.67;;;;;;;19.72;53.02;97621.16;4968371;28;20625;-26
2024/03/16 10:58:32;;;;;;;1.70;1.60;;;;;;;19.73;53.13;97633.09;4998384;28;20248;-27
2024/03/16 11:01:07;;;;;;;1.60;1.50;;;;;;;19.74;52.87;97631.41;5000370;28;20206;-28
2024/03/16 11:03:36;;;;;;;1.90;1.70;;;;;;;19.75;52.96;97633.16;5003013;28;20229;-25
2024/03/16 11:06:12;;;;;;;1.60;1.50;;;;;;;19.75;52.92;97621.25;4997968;28;20206;-27
2024/03/16 11:08:42;;;;;;;1.87;1.60;;;;;;;19.75;53.01;97635.72;5001724;28;20584;-27
2024/03/16 11:11:28;;;;;;;1.50;1.40;;;;;;;19.74;53.01;97629.75;5003615;28;20487;-33
2024/03/16 11:13:58;;;;;;;2.03;1.83;;;;;;;19.73;52.86;97635.66;4999238;28;20279;-28
2024/03/16 11:16:27;;;;;;;2.00;1.60;;;;;;;19.73;53.11;97622.03;4997455;28;20661;-27
2024/03/16 11:18:58;;;;;;;1.90;1.70;;;;;;;19.72;52.95;97626.25;5004507;28;20202;-28
2024/03/16 11:21:28;;;;;;;2.73;2.27;;;;;;;19.72;52.97;97615.22;4998349;28;20202;-27
2024/03/16 11:23:54;;;;;;;1.87;1.50;;;;;;;19.72;52.93;97623.69;5004538;28;20287;-26
2024/03/16 11:26:26;;;;;;;1.50;1.40;;;;;;;19.72;52.96;97620.31;4997805;28;20199;-26
2024/03/16 11:28:51;;;;;;;2.10;1.40;;;;;;;19.72;53.13;97618.59;4998225;28;20613;-27
2024/03/16 11:31:28;;;;;;;2.00;1.63;;;;;;;19.74;52.67;97618.66;5001306;28;20198;-27
2024/03/16 11:33:54;;;;;;;1.70;1.60;;;;;;;19.74;52.87;97619.53;4994769;28;20704;-26
2024/03/16 11:36:20;;;;;;;1.70;1.60;;;;;;;19.74;52.88;97611.00;4980402;28;20237;-27
2024/03/16 11:38:52;;;;;;;1.60;1.50;;;;;;;19.74;52.95;97617.00;4989799;28;20580;-28